LavenderCAM.net
Leatherhead Weather
 
Leatherhead Weather
 
 





Aviation weather for

London Heathrow (EGLL) and London Gatwick (EGKK)



London Heathrow (EGLL) METAR / Surface Actual
London / Heathrow Airport, United Kingdom (EGLL) 51-29N 000-27W 0M
Jan 29, 2023 - 12:50 PM EST / 2023.01.29 1750 UTC
Wind: from the SW (230 degrees) at 13 MPH (11 KT):0
Visibility: greater than 7 mile(s):0
Temperature: 46 F (8 C)
Dew Point: 42 F (6 C)
Relative Humidity: 87%
Pressure (altimeter): 30.18 in. Hg (1022 hPa)
ob: EGLL 291750Z AUTO 23011KT 9999 NCD 08/06 Q1022
cycle: 18
London Heathrow (EGLL) TAF / Forecast
2023/01/29 18:09
TAF EGLL 291655Z 2918/3024 25009KT 9999 SCT030 
      TEMPO 2923/3005 BKN012 PROB30 
      TEMPO 3000/3005 6000 -RADZ BKN008 
      BECMG 3004/3007 31010KT 
      BECMG 3020/3023 25006KT


London Gatwick (EGKK) METAR / Surface Actual
London / Gatwick Airport, United Kingdom (EGKK) 51-09N 000-11W 0M
Jan 29, 2023 - 12:50 PM EST / 2023.01.29 1750 UTC
Wind: from the SW (220 degrees) at 9 MPH (8 KT):0
Visibility: greater than 7 mile(s):0
Sky conditions: mostly cloudy
Temperature: 46 F (8 C)
Dew Point: 42 F (6 C)
Relative Humidity: 87%
Pressure (altimeter): 30.21 in. Hg (1023 hPa)
ob: EGKK 291750Z 22008KT 9999 SCT014 BKN024 08/06 Q1023
cycle: 18
London Gatwick (EGKK) TAF / Forecast
2023/01/29 18:09
TAF TAF EGKK 291656Z 2918/3024 24006KT 9999 FEW010 SCT020 
      TEMPO 2922/3007 BKN008 PROB40 
      TEMPO 3000/3006 6000 -RADZ 
      BECMG 3006/3009 30010KT 
      BECMG 3018/3021 24005KT